Terminal Aerodrome Forecast
Issued by NWS

Home | Current Version | Previous Version | Graphics & Text | Print | Product List | Glossary On
Versions: 1 2 3 4 5 6 7 8 9 10 11 12 13 14 15 16 17 18
000
FTUS43 KBIS 132330
TAFDIK
TAF
KDIK 132330Z 1400/1424 30013KT P6SM BKN200
     FM140600 29011KT 6SM -SN OVC030
     FM140800 30012KT 3SM -SN OVC015
     FM141200 32017G26KT 6SM BLSN OVC010
     FM141900 32019G28KT 6SM BLSN OVC020=

USA.gov is the U.S. government's official web portal to all federal, state and local government web resources and services.